Plain, Washington
Current Conditions -  °F | °C
As of 12:23 PM on Thursday 30 Oct 2014 (Local Time) from KEAT Reporting Station
Light Rain Light Rain  
Wind Chill: 50°   Ceiling: 4500
Heat Index: 50°   Visibility: 8mi
Dew Point: 47°   Wind: 3mph
Humidity: 89%   Direction: 260°W
Pressure: 30.03"   Gusts: NA
Location:  47.7866°N, 120.856°W
Report Text: KEAT 301923Z AUTO 26003KT 8SM -RA FEW004 BKN045 OVC065 10/08 A3003 RMK AO2 P0001 T01000083
Loading
Personal Weather Stations






























Interactive Weather Map
Tropical Storm Tracking
New forecast layout! Learn more

10-Day Weather Forecast

Advertisements
Track Severe Weather on mobile